Los Angeles, California
Traffic Map
Current Weather Conditions
Los Angeles, California
Few Clouds
Few Clouds
67°
Feels Like: 67°
Wind Chill: 67° Ceiling: Unl
Heat Index: 67° Visibility: 10mi
Dew Point: 60° Wind: 0mph
Humidity: 79% Direction: ° ()
Pressure: 29.93in Gusts: 0mph
Raw Report DataKCQT 030647Z AUTO 00000KT 10SM FEW016 19/16 A2993 RMK AO2 SLP134 T01940156
Traffic Incident Summary
Active as of:
Severity:
Category:
InformationThere was an issue retrieving the traffic information for this location. Please try a different location or try again shortly.
Advertisements
Track Severe Weather on mobile